PST,Max TemperatureF,Mean TemperatureF,Min TemperatureF,Max Dew PointF,MeanDew PointF,Min DewpointF,Max Humidity, Mean Humidity, Min Humidity, Max Sea Level PressureIn, Mean Sea Level PressureIn, Min Sea Level PressureIn, Max VisibilityMiles, Mean VisibilityMiles, Min VisibilityMiles, Max Wind SpeedMPH, Mean Wind SpeedMPH, Max Gust SpeedMPH,PrecipitationIn, CloudCover, Events, WindDirDegrees
2013-11-1,78,59,40,44,41,38,93,58,23,30.19,30.11,30.02,8,6,2,7,2,,0.00,0,,44
2013-11-2,79,60,41,46,42,37,89,58,27,30.05,29.96,29.88,8,6,2,10,2,12,0.00,0,,322
2013-11-3,67,58,49,45,34,29,71,49,26,30.01,29.94,29.90,10,9,2,22,11,27,0.00,0,,328
2013-11-4,65,54,42,34,30,27,65,47,28,30.07,29.97,29.90,10,10,8,15,5,18,0.00,0,,316
2013-11-5,69,52,35,36,33,30,82,53,24,30.25,30.18,30.08,10,9,8,8,1,12,0.00,0,,92
2013-11-6,74,56,37,37,34,30,85,53,20,30.31,30.24,30.19,9,7,5,7,2,9,0.00,0,,123
2013-11-7,78,61,43,40,36,28,76,47,18,30.20,30.13,30.06,8,6,2,8,3,11,0.00,0,,346
2013-11-8,75,56,37,40,37,34,85,55,25,30.10,30.04,29.96,7,6,3,8,2,10,0.00,0,,335
2013-11-9,78,58,38,40,37,27,86,51,15,30.06,30.02,29.97,9,5,3,7,2,9,0.00,0,,68
2013-11-10,79,58,37,40,37,30,85,51,17,30.12,30.07,30.02,7,5,3,8,2,9,0.00,0,,6
2013-11-11,75,57,38,45,40,35,86,57,27,30.18,30.13,30.07,6,4,2,9,4,12,0.00,0,,22
2013-11-12,70,59,47,47,45,42,80,60,40,30.30,30.23,30.16,6,4,2,10,4,14,0.00,0,,322
2013-11-13,73,57,40,46,42,39,96,64,31,30.26,30.19,30.11,7,3,0,10,2,13,0.00,0,Fog,103
2013-11-14,76,59,41,45,42,38,89,60,31,30.12,30.01,29.83,6,4,2,7,2,10,0.00,0,,59
2013-11-15,66,55,43,43,40,35,86,63,40,29.83,29.78,29.73,10,8,4,16,6,23,0.00,0,,324
2013-11-16,69,53,37,40,37,34,92,61,30,29.94,29.84,29.79,10,8,5,10,4,12,0.00,0,,68
2013-11-17,69,53,36,42,39,34,92,63,34,30.11,30.04,29.94,10,8,6,9,2,11,0.00,0,,276
2013-11-18,67,54,40,43,39,35,86,62,37,30.17,30.11,30.05,9,7,4,8,3,10,0.00,0,,54
2013-11-19,66,56,45,45,43,42,86,65,44,30.13,30.06,30.00,10,8,5,10,3,26,0.00,1,,318
2013-11-20,67,58,49,55,50,45,96,74,52,30.00,29.93,29.84,8,3,0,23,2,28,0.21,6,Fog-Rain,87
2013-11-21,57,53,49,55,52,46,93,88,83,29.98,29.90,29.87,10,5,2,17,7,21,0.05,8,Rain,299
2013-11-22,56,50,44,48,43,38,93,76,59,30.04,29.99,29.96,10,8,3,10,4,12,0.00,3,,5
2013-11-23,63,51,39,46,42,38,100,72,43,30.13,30.05,30.00,10,4,0,12,3,14,0.00,0,Fog,135
2013-11-24,66,53,39,46,41,38,96,67,37,30.27,30.18,30.12,10,5,2,8,3,10,0.00,1,,342
2013-11-25,66,50,34,46,39,33,100,72,44,30.36,30.30,30.27,7,3,0,8,2,10,0.00,0,Fog,307
2013-11-26,65,50,35,47,40,35,100,72,44,30.29,30.22,30.10,5,2,0,6,1,7,0.00,0,Fog,16
2013-11-27,71,55,39,47,42,38,100,68,36,30.08,29.97,29.84,5,2,0,9,2,12,0.00,0,Fog,46
2013-11-28,68,57,45,46,43,39,93,64,35,30.09,29.96,29.89,7,4,1,7,4,13,0.00,0,,325
2013-11-29,64,51,38,46,41,37,92,68,43,30.25,30.17,30.09,7,4,1,10,2,13,0.00,1,,196
2013-11-30,69,53,37,45,40,35,92,66,39,30.30,30.25,30.20,6,3,0,10,3,13,0.00,0,Fog,37